Time;durP1;ratioP1;P1;durP2;ratioP2;P2;SDS_P1;SDS_P2;PMS_P1;PMS_P2;Temp;Humidity;BMP_temperature;BMP_pressure;BME280_temperature;BME280_humidity;BME280_pressure;Samples;Min_cycle;Max_cycle;Signal;HPM_P1;HPM_P2
2023/03/06 00:03:22;;;;;;;0.20;0.10;;;8.10;99.90;;;;;;20972372;28;20742;-70
2023/03/06 00:13:29;;;;;;;0.20;0.10;;;7.90;99.90;;;;;;20991338;28;20467;-70
2023/03/06 00:23:35;;;;;;;1.80;1.70;;;8.60;99.90;;;;;;20982715;28;20467;-70
2023/03/06 00:33:38;;;;;;;0.20;0.10;;;8.50;99.90;;;;;;20989198;28;20410;-70
2023/03/06 00:43:43;;;;;;;0.20;0.03;;;8.30;99.90;;;;;;20971156;28;20406;-70
2023/03/06 00:53:47;;;;;;;0.20;0.10;;;8.60;99.90;;;;;;20988921;28;20987;-70
2023/03/06 01:03:52;;;;;;;0.20;0.10;;;8.20;99.90;;;;;;20987461;28;20448;-71
2023/03/06 01:13:57;;;;;;;0.20;0.10;;;7.80;99.90;;;;;;20985565;28;20418;-70
2023/03/06 01:24:02;;;;;;;0.20;0.10;;;7.80;99.90;;;;;;20976780;28;20413;-71
2023/03/06 01:34:06;;;;;;;0.20;0.10;;;7.80;99.90;;;;;;21051165;28;20890;-71
2023/03/06 01:44:12;;;;;;;0.20;0.00;;;8.30;99.90;;;;;;21067954;28;20408;-70
2023/03/06 01:54:20;;;;;;;0.20;0.00;;;7.90;99.90;;;;;;20971026;28;20436;-70
2023/03/06 02:04:26;;;;;;;0.20;0.10;;;7.80;99.90;;;;;;20900653;28;20492;-69
2023/03/06 02:14:30;;;;;;;0.20;0.10;;;7.50;99.90;;;;;;20899706;28;20407;-69
2023/03/06 02:24:40;;;;;;;0.20;0.10;;;7.80;99.90;;;;;;20880937;28;20388;-71
2023/03/06 02:34:56;;;;;;;0.20;0.10;;;8.20;99.90;;;;;;20896643;28;21338;-69
2023/03/06 02:45:02;;;;;;;0.20;0.10;;;7.90;99.90;;;;;;20897069;28;20406;-70
2023/03/06 02:55:08;;;;;;;0.20;0.10;;;8.10;99.90;;;;;;20895553;28;20457;-70
2023/03/06 03:05:13;;;;;;;0.20;0.10;;;8.10;99.90;;;;;;20896307;28;20403;-70
2023/03/06 03:15:18;;;;;;;0.20;0.10;;;8.30;99.90;;;;;;20895734;28;20407;-69
2023/03/06 03:25:23;;;;;;;0.20;0.10;;;8.30;99.90;;;;;;20877608;28;20465;-70
2023/03/06 03:35:29;;;;;;;0.20;0.10;;;8.40;99.90;;;;;;20903243;28;20730;-70
2023/03/06 03:45:32;;;;;;;0.20;0.10;;;8.70;99.90;;;;;;20910022;28;20938;-71
2023/03/06 03:55:38;;;;;;;0.20;0.10;;;8.80;99.90;;;;;;20942572;28;20398;-70
2023/03/06 04:05:42;;;;;;;0.20;0.10;;;8.70;99.90;;;;;;20989643;28;20417;-69
2023/03/06 04:15:48;;;;;;;0.20;0.10;;;8.90;99.90;;;;;;20991129;28;20401;-69
2023/03/06 04:25:52;;;;;;;0.20;0.00;;;9.10;99.90;;;;;;20990361;28;20417;-69
2023/03/06 04:35:57;;;;;;;0.20;0.10;;;9.20;99.90;;;;;;20955024;28;20409;-70
2023/03/06 04:46:00;;;;;;;0.20;0.10;;;8.90;99.90;;;;;;20969645;28;21016;-69
2023/03/06 04:56:06;;;;;;;0.20;0.00;;;8.90;99.90;;;;;;20985485;28;21112;-69
2023/03/06 05:06:10;;;;;;;0.20;0.10;;;9.00;99.90;;;;;;20969013;28;20743;-69
2023/03/06 05:16:16;;;;;;;0.20;0.10;;;9.00;99.90;;;;;;20952268;28;20394;-69
2023/03/06 05:26:20;;;;;;;0.20;0.10;;;8.90;99.90;;;;;;20986176;28;20425;-70
2023/03/06 05:36:26;;;;;;;0.20;0.10;;;8.80;99.90;;;;;;20967164;28;20414;-71
2023/03/06 05:46:29;;;;;;;0.20;0.10;;;8.90;99.90;;;;;;20965584;28;20800;-69
2023/03/06 05:56:35;;;;;;;0.20;0.10;;;9.00;99.90;;;;;;20977668;28;20402;-70
2023/03/06 06:06:39;;;;;;;0.20;0.10;;;9.10;99.90;;;;;;20982106;28;20923;-70
2023/03/06 06:16:44;;;;;;;0.20;0.10;;;9.50;99.90;;;;;;20981457;28;20424;-71
2023/03/06 06:26:51;;;;;;;0.20;0.10;;;9.50;99.90;;;;;;20962595;28;20414;-68
2023/03/06 06:36:56;;;;;;;0.20;0.10;;;9.50;99.90;;;;;;20944287;28;20439;-69
2023/03/06 06:47:00;;;;;;;0.20;0.10;;;9.50;99.90;;;;;;20977132;28;20413;-68
2023/03/06 06:57:25;;;;;;;0.20;0.10;;;9.40;99.90;;;;;;20955912;28;20401;-70
2023/03/06 07:07:29;;;;;;;0.20;0.10;;;9.60;99.90;;;;;;20973680;28;20413;-71
2023/03/06 07:17:35;;;;;;;0.20;0.10;;;9.80;99.90;;;;;;20949755;28;20446;-70
2023/03/06 07:27:38;;;;;;;0.20;0.10;;;9.90;99.90;;;;;;20874447;28;20454;-69
2023/03/06 07:37:44;;;;;;;0.20;0.10;;;9.70;99.90;;;;;;20891461;28;20744;-71
2023/03/06 07:47:50;;;;;;;0.20;0.00;;;10.00;99.90;;;;;;20872429;28;20510;-69
2023/03/06 07:57:55;;;;;;;0.20;0.10;;;10.30;99.90;;;;;;20926927;28;20394;-70
2023/03/06 08:07:59;;;;;;;0.20;0.10;;;10.60;99.90;;;;;;20953486;28;20917;-69
2023/03/06 08:18:04;;;;;;;0.20;0.10;;;11.20;99.90;;;;;;20958427;28;20398;-69
2023/03/06 08:28:08;;;;;;;0.20;0.10;;;12.10;99.90;;;;;;20970524;28;20786;-69
2023/03/06 08:38:13;;;;;;;0.20;0.05;;;12.80;99.90;;;;;;20988322;28;20406;-71
2023/03/06 08:48:17;;;;;;;0.20;0.10;;;13.30;99.90;;;;;;20967994;28;20421;-69
2023/03/06 08:58:23;;;;;;;0.20;0.00;;;13.30;99.90;;;;;;20985521;28;20651;-67
2023/03/06 09:08:26;;;;;;;0.20;0.00;;;13.60;99.90;;;;;;20983787;28;20417;-71
2023/03/06 09:18:32;;;;;;;0.20;0.00;;;14.20;99.90;;;;;;20984646;28;20408;-76
2023/03/06 09:28:39;;;;;;;0.20;0.10;;;14.20;99.90;;;;;;20982745;28;20422;-69
2023/03/06 09:38:46;;;;;;;0.20;0.10;;;14.30;99.90;;;;;;20949307;28;20401;-70
2023/03/06 09:49:00;;;;;;;0.20;0.00;;;14.20;99.90;;;;;;20946919;28;20420;-68
2023/03/06 10:33:58;;;;;;;0.20;0.10;;;14.80;99.90;;;;;;20951923;28;20424;-70
2023/03/06 10:44:23;;;;;;;0.20;0.10;;;14.80;99.90;;;;;;20934419;28;20417;-69
2023/03/06 10:54:29;;;;;;;0.20;0.10;;;15.50;99.90;;;;;;20934524;28;20419;-70
2023/03/06 11:04:35;;;;;;;0.20;0.10;;;15.90;99.90;;;;;;20874671;28;20490;-69
2023/03/06 11:14:40;;;;;;;0.20;0.10;;;16.20;99.90;;;;;;20909851;28;20505;-69
2023/03/06 11:24:48;;;;;;;4.30;3.80;;;16.80;99.90;;;;;;20938142;28;20398;-69
2023/03/06 11:34:58;;;;;;;0.20;0.10;;;17.30;99.90;;;;;;20951341;28;20491;-69
2023/03/06 11:45:22;;;;;;;0.20;0.10;;;17.80;99.90;;;;;;20953811;28;20410;-69
2023/03/06 11:55:40;;;;;;;0.20;0.10;;;17.70;99.90;;;;;;20980328;28;20520;-69
2023/03/06 12:05:50;;;;;;;0.20;0.00;;;18.00;99.90;;;;;;20986970;28;21186;-68
2023/03/06 12:16:08;;;;;;;0.20;0.10;;;17.20;99.90;;;;;;20986134;28;20436;-68
2023/03/06 12:26:40;;;;;;;0.20;0.10;;;17.20;99.90;;;;;;20960170;28;20498;-66
2023/03/06 12:36:57;;;;;;;0.20;0.13;;;17.20;99.90;;;;;;20938166;28;20410;-68
2023/03/06 12:47:05;;;;;;;0.20;0.05;;;18.80;99.90;;;;;;20986076;28;20459;-68
2023/03/06 12:57:11;;;;;;;0.20;0.08;;;19.30;99.90;;;;;;20967676;28;20473;-66
2023/03/06 13:07:29;;;;;;;0.20;0.10;;;17.50;99.90;;;;;;20965146;28;20538;-68
2023/03/06 13:17:39;;;;;;;0.20;0.10;;;17.30;99.90;;;;;;20948201;28;20970;-70
2023/03/06 13:27:47;;;;;;;0.20;0.10;;;19.50;99.90;;;;;;20953148;28;20447;-66
2023/03/06 13:37:54;;;;;;;0.20;0.10;;;18.10;99.90;;;;;;20879920;28;20400;-68
2023/03/06 13:48:00;;;;;;;0.20;0.10;;;18.70;99.90;;;;;;20952504;28;20445;-69
2023/03/06 13:58:37;;;;;;;0.20;0.10;;;17.70;99.90;;;;;;20982339;28;20390;-68
2023/03/06 14:08:41;;;;;;;0.20;0.13;;;19.50;99.90;;;;;;20959796;28;20457;-70
2023/03/06 14:18:48;;;;;;;0.20;0.03;;;18.00;99.90;;;;;;20975135;28;20448;-68
2023/03/06 14:28:57;;;;;;;0.20;0.10;;;16.60;99.90;;;;;;20992959;28;20410;-68
2023/03/06 14:39:05;;;;;;;0.20;0.10;;;16.20;99.90;;;;;;20955331;28;20489;-67
2023/03/06 14:49:09;;;;;;;0.20;0.10;;;16.00;99.90;;;;;;20955589;28;20897;-72
2023/03/06 14:59:20;;;;;;;0.20;0.10;;;16.70;99.90;;;;;;20938784;28;20406;-69
2023/03/06 15:09:27;;;;;;;0.20;0.10;;;17.40;99.90;;;;;;21000185;28;20411;-68
2023/03/06 15:19:40;;;;;;;0.20;0.10;;;16.30;99.90;;;;;;20995407;28;20402;-68
2023/03/06 15:29:44;;;;;;;0.20;0.10;;;16.00;99.90;;;;;;20989393;28;20416;-69
2023/03/06 15:40:05;;;;;;;0.20;0.10;;;15.40;99.90;;;;;;21018665;28;20433;-67
2023/03/06 15:50:15;;;;;;;0.20;0.10;;;15.20;99.90;;;;;;21009424;28;20412;-68
2023/03/06 16:00:26;;;;;;;0.20;0.10;;;15.60;99.90;;;;;;20993531;28;20403;-70
2023/03/06 16:10:33;;;;;;;0.20;0.10;;;15.10;99.90;;;;;;21042491;28;20412;-73
2023/03/06 16:20:38;;;;;;;0.20;0.10;;;15.10;99.90;;;;;;21057211;28;20380;-67
2023/03/06 16:30:44;;;;;;;0.20;0.10;;;14.90;99.90;;;;;;20968151;28;20814;-66
2023/03/06 16:40:49;;;;;;;0.20;0.00;;;14.60;99.90;;;;;;21032691;28;20417;-67
2023/03/06 16:50:53;;;;;;;0.20;0.03;;;14.30;99.90;;;;;;20980128;28;20418;-70
2023/03/06 17:00:59;;;;;;;0.20;0.10;;;14.50;99.90;;;;;;20990417;28;20406;-68
2023/03/06 17:11:05;;;;;;;0.20;0.10;;;14.60;99.90;;;;;;20961718;28;20867;-68
2023/03/06 17:21:14;;;;;;;0.20;0.00;;;14.40;99.90;;;;;;21021350;28;20497;-71
2023/03/06 17:31:20;;;;;;;0.20;0.10;;;14.20;99.90;;;;;;20975891;28;20417;-69
2023/03/06 17:41:26;;;;;;;0.20;0.10;;;14.10;99.90;;;;;;20973778;28;20485;-69
2023/03/06 17:51:30;;;;;;;0.20;0.00;;;13.70;99.90;;;;;;20973552;28;20413;-73
2023/03/06 18:01:35;;;;;;;0.20;0.00;;;13.40;99.90;;;;;;20977448;28;20405;-70
2023/03/06 18:11:40;;;;;;;0.20;0.10;;;12.90;99.90;;;;;;20956087;28;20493;-70
2023/03/06 18:21:46;;;;;;;0.20;0.10;;;12.70;99.90;;;;;;20959087;28;20394;-71
2023/03/06 18:31:49;;;;;;;0.20;0.10;;;12.70;99.90;;;;;;20969081;28;20471;-71
2023/03/06 18:41:55;;;;;;;0.20;0.10;;;12.70;99.90;;;;;;20975641;28;20424;-73
2023/03/06 18:51:59;;;;;;;0.20;0.00;;;12.50;99.90;;;;;;20971007;28;20919;-70
2023/03/06 19:02:04;;;;;;;0.20;0.10;;;12.50;99.90;;;;;;21004355;28;20396;-69
2023/03/06 19:12:08;;;;;;;0.20;0.00;;;12.40;99.90;;;;;;21054154;28;20416;-70
2023/03/06 19:22:14;;;;;;;0.20;0.10;;;12.10;99.90;;;;;;21019690;28;20411;-72
2023/03/06 19:32:17;;;;;;;0.20;0.07;;;10.90;99.90;;;;;;20986445;28;20442;-71
2023/03/06 19:42:23;;;;;;;0.20;0.03;;;10.70;99.90;;;;;;20983326;28;20410;-73
2023/03/06 19:52:27;;;;;;;0.20;0.10;;;10.30;99.90;;;;;;20952975;28;20509;-72
2023/03/06 20:02:33;;;;;;;0.20;0.10;;;10.10;99.90;;;;;;20970874;28;20406;-70
2023/03/06 20:12:36;;;;;;;0.20;0.05;;;9.80;99.90;;;;;;20971670;28;20412;-72
2023/03/06 20:22:42;;;;;;;0.20;0.10;;;9.70;99.90;;;;;;20998870;28;20404;-72
2023/03/06 20:32:46;;;;;;;0.20;0.10;;;9.40;99.90;;;;;;21022304;28;20414;-70
2023/03/06 20:42:51;;;;;;;0.20;0.10;;;9.50;99.90;;;;;;20983330;28;20491;-70
2023/03/06 20:52:57;;;;;;;0.20;0.00;;;9.10;99.90;;;;;;20966597;28;20417;-70
2023/03/06 21:03:02;;;;;;;0.20;0.10;;;9.20;99.90;;;;;;20981646;28;20416;-71
2023/03/06 21:13:06;;;;;;;0.20;0.10;;;8.70;99.90;;;;;;20980784;28;20710;-68
2023/03/06 21:23:13;;;;;;;0.20;0.10;;;8.90;99.90;;;;;;20981960;28;20963;-68
2023/03/06 21:33:17;;;;;;;0.20;0.10;;;8.60;99.90;;;;;;20978610;28;20436;-71
2023/03/06 21:43:23;;;;;;;0.20;0.10;;;8.40;99.90;;;;;;20979255;28;20405;-69
2023/03/06 21:53:26;;;;;;;0.33;0.27;;;8.40;99.90;;;;;;20978806;28;20479;-69
2023/03/06 22:03:31;;;;;;;0.20;0.00;;;8.30;99.90;;;;;;20959650;28;20414;-70
2023/03/06 22:13:35;;;;;;;0.20;0.10;;;8.20;99.90;;;;;;21028092;28;20410;-69
2023/03/06 22:23:41;;;;;;;0.20;0.10;;;8.10;99.90;;;;;;20958083;28;20483;-69
2023/03/06 22:33:45;;;;;;;0.20;0.10;;;7.90;99.90;;;;;;20974545;28;20453;-70
2023/03/06 22:43:50;;;;;;;0.20;0.00;;;7.70;99.90;;;;;;21018308;28;20430;-70
2023/03/06 22:53:54;;;;;;;0.20;0.00;;;7.90;99.90;;;;;;20973615;28;20838;-70
2023/03/06 23:04:01;;;;;;;0.20;0.10;;;7.80;99.90;;;;;;20974583;28;20455;-70
2023/03/06 23:14:05;;;;;;;0.20;0.10;;;7.80;99.90;;;;;;20960575;28;20778;-70
2023/03/06 23:24:10;;;;;;;0.20;0.10;;;7.50;99.90;;;;;;20981894;28;20407;-68
2023/03/06 23:34:14;;;;;;;0.20;0.10;;;7.50;99.90;;;;;;21013252;28;20418;-71
2023/03/06 23:44:19;;;;;;;0.20;0.10;;;7.40;99.90;;;;;;21019473;28;20455;-71
2023/03/06 23:54:23;;;;;;;0.20;0.10;;;7.30;99.90;;;;;;21014628;28;20893;-71
